• Join FlightAware (Why Join?)
  • Login
  • US Flag 
03:42PM EDT


 

Airport Tracker/Info


-or-


 

Live Flight TrackerFlight Track Log ✈ TAM3518 ✈ 23-Sep-2013 ✈ SBVT / VIX - SBBR / BSB

Flight Track Log - Related Links

Times and Time Zones

All times are in EDT time to prevent confusion due to time zone crossing. See the TAM3518 flight status page for this flight to view local times or setup timezone preferences in your user account.

Time Position Orientation Groundspeed Altitude Reporting Facility
EDT Latitude Longitude Course Direction KTS MPH feet Rate Location/Type
07:10AM -20.2590 -40.2890 180° South  Level FlightAware
07:12AM -20.2610 -40.2890 32° Northeast 300 Level FlightAware
07:13AM -20.2420 -40.2770 31° Northeast 144 166 900 1,860 Climbing FlightAware
07:13AM -20.2330 -40.2680 43° Northeast 153 176 1,200 1,080 Climbing FlightAware
07:13AM -20.2320 -40.2640 75° East 172 198 1,300 900 Climbing FlightAware
07:14AM -20.2380 -40.2430 107° East 221 254 1,700 1,080 Climbing FlightAware
07:14AM -20.2440 -40.2390 148° Southeast 226 260 1,900 1,500 Climbing FlightAware
07:14AM -20.2520 -40.2360 161° South 230 265 2,100 1,680 Climbing FlightAware
07:14AM -20.2740 -40.2480 207° Southwest 218 251 2,800 2,040 Climbing FlightAware
07:14AM -20.2760 -40.2550 253° West 209 241 3,200 1,860 Climbing FlightAware
07:15AM -20.2760 -40.2590 270° West 203 234 3,300 1,620 Climbing FlightAware
07:15AM -20.2610 -40.2760 313° West 191 220 4,100 1,500 Climbing FlightAware
07:15AM -20.2420 -40.2920 322° Northwest 223 257 4,300 960 Climbing FlightAware
07:15AM -20.2330 -40.3080 301° West 247 284 4,600 1,500 Climbing FlightAware
07:16AM -20.2190 -40.3380 296° West 275 316 5,300 2,580 Climbing FlightAware
07:16AM -20.2020 -40.3740 297° West 276 318 6,700 3,000 Climbing FlightAware
07:17AM -20.1870 -40.4030 299° West 278 320 7,700 2,400 Climbing FlightAware
07:17AM -20.1720 -40.4310 300° West 282 325 8,700 2,460 Climbing FlightAware
07:17AM -20.1600 -40.4540 299° West 286 329 9,400 1,980 Climbing FlightAware
07:18AM -20.1360 -40.5000 299° West 298 343 10,600 1,620 Climbing FlightAware
07:19AM -20.1090 -40.5530 298° West 336 387 11,400 1,560 Climbing FlightAware
07:19AM -20.0850 -40.6000 299° West 349 402 12,400 2,100 Climbing FlightAware
07:20AM -20.0530 -40.6610 299° West 355 409 14,000 2,280 Climbing FlightAware
07:20AM -20.0240 -40.7180 298° West 363 418 15,100 1,920 Climbing FlightAware
07:21AM -20.0000 -40.7650 299° West 365 420 16,100 1,740 Climbing FlightAware
07:22AM -19.9660 -40.8290 299° West 374 430 17,200 1,560 Climbing FlightAware
07:22AM -19.9410 -40.8790 298° West 381 438 18,000 1,560 Climbing FlightAware
07:23AM -19.9140 -40.9300 299° West 385 443 18,900 1,680 Climbing FlightAware
07:23AM -19.8770 -41.0000 299° West 387 445 20,100 1,620 Climbing FlightAware
07:24AM -19.8500 -41.0540 298° West 393 452 20,900 1,500 Climbing FlightAware
07:24AM -19.8170 -41.1160 299° West 401 461 21,700 1,560 Climbing FlightAware
07:25AM -19.7820 -41.1830 299° West 405 466 22,800 1,380 Climbing FlightAware
07:26AM -19.7510 -41.2410 300° West 406 467 23,400 1,200 Climbing FlightAware
07:26AM -19.7200 -41.3010 299° West 413 475 24,200 1,740 Climbing FlightAware
07:27AM -19.6560 -41.4220 299° West 424 488 25,600 1,620 Climbing FlightAware
07:27AM -19.6170 -41.4960 299° West 431 496 26,300 1,080 Climbing FlightAware
07:28AM -19.5920 -41.5440 299° West 434 499 26,900 1,200 Climbing FlightAware
07:29AM -19.5550 -41.6140 299° West 438 504 27,600 1,020 Climbing FlightAware
07:29AM -19.5140 -41.6920 299° West 445 512 28,200 840 Climbing FlightAware
07:30AM -19.4780 -41.7590 300° West 451 519 28,700 780 Climbing FlightAware
07:30AM -19.4470 -41.8160 300° West 454 522 29,100 720 Climbing FlightAware
07:31AM -19.4060 -41.8960 299° West 462 532 29,600 780 Climbing FlightAware
07:32AM -19.3700 -41.9650 299° West 465 535 30,100 900 Climbing FlightAware
07:32AM -19.3340 -42.0330 299° West 466 536 30,700 1,080 Climbing FlightAware
07:33AM -19.3010 -42.0950 299° West 463 533 31,300 1,200 Climbing FlightAware
07:33AM -19.2600 -42.1680 301° West 460 529 32,100 1,080 Climbing FlightAware
07:34AM -19.2200 -42.2410 300° West 460 529 32,700 960 Climbing FlightAware
07:34AM -19.1890 -42.2990 299° West 458 527 33,200 1,080 Climbing FlightAware
07:35AM -19.1460 -42.3760 301° West 456 525 34,000 720 Climbing FlightAware
07:36AM -19.1130 -42.4350 301° West 455 524 34,100 600 Climbing FlightAware
07:36AM -19.0770 -42.5010 300° West 453 521 34,700 840 Climbing FlightAware
07:37AM -19.0360 -42.5760 300° West 453 521 35,200 720 Climbing FlightAware
07:37AM -19.0000 -42.6400 301° West 454 522 35,600 600 Climbing FlightAware
07:38AM -18.9680 -42.7030 298° West 453 521 35,900 360 Climbing FlightAware
07:38AM -18.9340 -42.7700 298° West 451 519 36,000 60 Climbing FlightAware
07:39AM -18.8900 -42.8480 301° West 451 519 36,000  Level FlightAware
07:40AM -18.8570 -42.9050 301° West 451 519 36,000  Level FlightAware
07:40AM -18.8220 -42.9700 300° West 454 522 36,000  Level FlightAware
07:41AM -18.7800 -43.0450 301° West 455 524 36,000  Level FlightAware
07:41AM -18.7470 -43.1040 301° West 455 524 36,000  Level FlightAware
07:42AM -18.7090 -43.1720 301° West 454 522 36,000  Level FlightAware
07:43AM -18.6670 -43.2480 300° West 454 522 36,000  Level FlightAware
07:43AM -18.6380 -43.3040 299° West 455 524 36,000  Level FlightAware
07:44AM -18.6050 -43.3680 299° West 456 525 36,000  Level FlightAware
07:44AM -18.5610 -43.4550 298° West 456 525 36,000  Level FlightAware
07:45AM -18.5270 -43.5210 299° West 455 524 36,000  Level FlightAware
07:45AM -18.4970 -43.5790 299° West 455 524 36,000  Level FlightAware
07:46AM -18.4650 -43.6410 299° West 455 524 36,000  Level FlightAware
07:47AM -18.4230 -43.7230 298° West 455 524 36,000  Level FlightAware
07:47AM -18.3860 -43.7940 299° West 455 524 36,000  Level FlightAware
07:48AM -18.3580 -43.8480 299° West 455 524 36,000  Level FlightAware
07:48AM -18.3210 -43.9190 299° West 455 524 36,000  Level FlightAware
07:49AM -18.2800 -43.9990 298° West 455 524 36,000  Level FlightAware
07:50AM -18.2510 -44.0540 299° West 455 524 36,000  Level FlightAware
07:50AM -18.2160 -44.1210 299° West 455 524 36,000  Level FlightAware
07:51AM -18.1740 -44.2040 298° West 456 525 36,000  Level FlightAware
07:51AM -18.1390 -44.2700 299° West 454 522 36,000  Level FlightAware
07:52AM -18.1100 -44.3260 299° West 454 522 36,000  Level FlightAware
07:52AM -18.0740 -44.3960 298° West 452 520 36,000  Level FlightAware
07:53AM -18.0340 -44.4730 299° West 452 520 36,000  Level FlightAware
07:54AM -18.0030 -44.5310 299° West 452 520 36,000  Level FlightAware
07:54AM -17.9680 -44.5990 298° West 452 520 36,000  Level FlightAware
07:55AM -17.9280 -44.6740 299° West 452 520 36,000  Level FlightAware
07:55AM -17.8920 -44.7430 299° West 453 521 36,000  Level FlightAware
07:56AM -17.8630 -44.7980 299° West 454 522 36,000  Level FlightAware
07:57AM -17.8270 -44.8660 299° West 452 520 36,000  Level FlightAware
07:57AM -17.7850 -44.9460 299° West 453 521 36,000  Level FlightAware
07:58AM -17.7500 -45.0120 299° West 453 521 36,000  Level FlightAware
07:58AM -17.7200 -45.0700 298° West 452 520 36,000  Level FlightAware
07:59AM -17.6850 -45.1350 299° West 452 520 36,000  Level FlightAware
08:00AM -17.6420 -45.2130 300° West 452 520 36,000  Level FlightAware
08:00AM -17.6100 -45.2670 302° West 452 520 36,000  Level FlightAware
08:01AM -17.5640 -45.3430 302° West 453 521 36,000  Level FlightAware
08:01AM -17.5310 -45.3990 302° West 454 522 36,000  Level FlightAware
08:02AM -17.4940 -45.4620 302° West 453 521 36,000  Level FlightAware
08:02AM -17.4510 -45.5330 302° West 452 520 36,000  Level FlightAware
08:03AM -17.4160 -45.5930 301° West 453 521 36,000  Level FlightAware
08:04AM -17.3670 -45.6760 302° West 454 522 36,000  Level FlightAware
08:04AM -17.3260 -45.7430 303° West 451 519 36,000  Level FlightAware
08:05AM -17.2980 -45.7910 301° West 450 518 36,000  Level FlightAware
08:06AM -17.2420 -45.8850 302° West 448 516 36,000  Level FlightAware
08:06AM -17.1880 -45.9730 303° West 447 514 36,000  Level FlightAware
08:07AM -17.1520 -46.0330 302° West 447 514 36,000  Level FlightAware
08:08AM -17.1140 -46.0970 302° West 447 514 36,000  Level FlightAware
08:08AM -17.0800 -46.1530 302° West 447 514 36,000  Level FlightAware
08:09AM -17.0470 -46.2100 301° West 447 514 36,000  Level FlightAware
08:09AM -17.0130 -46.2660 302° West 447 514 36,000  Level FlightAware
08:10AM -16.9800 -46.3220 302° West 447 514 36,000  Level FlightAware
08:11AM -16.9470 -46.3760 303° West 447 514 36,000  Level FlightAware
08:11AM -16.9140 -46.4310 302° West 447 514 36,000  Level FlightAware
08:12AM -16.8810 -46.4870 302° West 447 514 36,000  Level FlightAware
08:12AM -16.8460 -46.5450 302° West 447 514 36,000  Level FlightAware
08:13AM -16.8130 -46.6010 302° West 447 514 36,000  Level FlightAware
08:14AM -16.7790 -46.6570 302° West 447 514 36,000  Level FlightAware
08:14AM -16.7460 -46.7130 302° West 447 514 36,000  Level FlightAware
08:15AM -16.7090 -46.7730 303° West 447 514 36,000  Level FlightAware
08:16AM -16.6750 -46.8310 301° West 447 514 36,000  Level FlightAware
08:16AM -16.6430 -46.8840 302° West 447 514 36,000  Level FlightAware
08:17AM -16.6090 -46.9420 301° West 447 514 36,000 -6,000 Level FlightAware
08:19AM -16.5130 -47.0676 309° West  Level Estimated
08:20AM -16.4596 -47.1374 309° West  Level Estimated
08:20AM -16.3650 -47.2660 309° West 341 392 14,900  Level FlightAware
08:20AM -16.3280 -47.3030 316° Northwest 338 389 14,600 -1,380 Descending FlightAware
08:21AM -16.2880 -47.3440 315° West 330 380 13,300 -1,260 Descending FlightAware
08:21AM -16.2510 -47.3800 317° Northwest 323 372 13,100 -480 Descending FlightAware
08:22AM -16.2110 -47.4190 317° Northwest 323 372 12,700 -1,080 Descending FlightAware
08:23AM -16.1760 -47.4550 315° West 278 320 11,800 -1,080 Descending FlightAware
08:23AM -16.1430 -47.4870 317° Northwest 256 295 11,500 -780 Descending FlightAware
08:24AM -16.1140 -47.5160 316° Northwest 243 280 10,900 -1,080 Descending FlightAware
08:24AM -16.0850 -47.5450 316° Northwest 238 274 10,300 -780 Descending FlightAware
08:25AM -16.0580 -47.5720 316° Northwest 236 272 10,000 -360 Descending FlightAware
08:25AM -16.0430 -47.5900 311° West 240 276 10,000  Level FlightAware
08:25AM -16.0400 -47.6000 287° West 241 277 10,000  Level FlightAware
08:26AM -16.0390 -47.6060 280° West 243 280 10,000  Level FlightAware
08:26AM -16.0430 -47.6360 262° West 246 283 10,000  Level FlightAware
08:26AM -16.0480 -47.6710 262° West 247 284 10,000  Level FlightAware
08:27AM -16.0520 -47.7060 263° West 248 285 10,000  Level FlightAware
08:27AM -16.0560 -47.7300 260° West 248 285 10,000  Level FlightAware
08:28AM -16.0600 -47.7590 262° West 250 288 10,000  Level FlightAware
08:28AM -16.0490 -47.7890 291° West 243 280 10,000  Level FlightAware
08:28AM -16.0380 -47.7960 329° Northwest 237 273 10,000 -300 Level FlightAware
08:28AM -16.0290 -47.7980 348° North 235 270 9,900 -720 Descending FlightAware
08:29AM -16.0110 -47.8000 354° North 226 260 9,700 -840 Descending FlightAware
08:29AM -15.9920 -47.7930 20° North 221 254 9,400 -1,020 Descending FlightAware
08:29AM -15.9850 -47.7840 51° Northeast 221 254 9,200 -1,020 Descending FlightAware
08:30AM -15.9760 -47.7660 63° Northeast 218 251 8,900 -1,200 Descending FlightAware
08:30AM -15.9660 -47.7470 61° Northeast 219 252 8,400 -1,500 Descending FlightAware
08:30AM -15.9540 -47.7230 63° Northeast 221 254 7,800 -1,380 Descending FlightAware
08:31AM -15.9440 -47.7050 60° Northeast 221 254 7,400 -1,200 Descending FlightAware
08:31AM -15.9370 -47.6910 63° Northeast 222 255 7,100 -1,200 Descending FlightAware
08:31AM -15.9310 -47.6820 55° Northeast 218 251 6,900 -1,200 Descending FlightAware
08:31AM -15.9230 -47.6760 36° Northeast 217 250 6,700 -1,200 Descending FlightAware
08:31AM -15.9180 -47.6740 21° North 215 247 6,600 -1,200 Descending FlightAware
08:32AM -15.9040 -47.6750 356° North 210 242 6,300 -1,200 Descending FlightAware
08:32AM -15.8960 -47.6800 329° Northwest 207 238 6,100 -1,200 Descending FlightAware
08:32AM -15.8890 -47.6880 312° West 205 236 5,900 -960 Descending FlightAware
08:32AM -15.8850 -47.6960 297° West 204 235 5,800 -300 Descending FlightAware
08:32AM -15.8820 -47.7060 287° West 199 229 5,800 -240 Level FlightAware
08:33AM -15.8780 -47.7220 285° West 188 216 5,700 -300 Descending FlightAware
08:33AM -15.8720 -47.7440 286° West 176 203 5,600 -300 Descending FlightAware
08:33AM -15.8700 -47.7570 279° West 176 203 5,500 -420 Descending FlightAware
08:34AM -15.8710 -47.7830 268° West 158 182 5,300 -360 Descending FlightAware
08:34AM -15.8710 -47.7980 270° West 152 175 5,200 -660 Descending FlightAware
08:34AM -15.8720 -47.8120 266° West 152 175 4,900 -780 Descending FlightAware
08:35AM -15.8730 -47.8250 265° West 145 167 4,700 -780 Descending FlightAware
08:35AM -15.8740 -47.8330 263° West 147 169 4,500 -900 Descending FlightAware
08:35AM -15.8750 -47.8510 267° West 151 174 4,200 -780 Descending FlightAware
08:36AM -15.8760 -47.8630 265° West 151 174 4,000 -720 Descending FlightAware
08:36AM -15.8770 -47.8820 267° West 148 170 3,700 -840 Descending FlightAware
08:36AM -15.8780 -47.8960 266° West 148 170 3,400 -660 Descending FlightAware
08:37AM -15.8790 -47.9070 265° West 153 176 3,300 -60 Descending FlightAware
08:37AM -15.8790 -47.9200 270° West 125 144 -60 Descending FlightAware
08:41AM -15.8770 -47.9180 80° East 152 175 3,200 720 Climbing FlightAware
08:41AM -15.8780 -47.9340 266° West 152 175 3,200  Level FlightAware
08:42AM -15.8750 -47.9160 80° East 152 175 3,200  Level FlightAware
08:42AM -15.8760 -47.9310 266° West 152 175 3,200  Level FlightAware